sensor_id;sensor_type;location;lat;lon;timestamp;pressure;altitude;pressure_sealevel;temperature;humidity
19890;BME280;10107;51.198;6.824;2024-02-23T00:03:27;66101.78;;;5.36;100.00
19890;BME280;10107;51.198;6.824;2024-02-23T00:07:29;66104.13;;;5.22;100.00
19890;BME280;10107;51.198;6.824;2024-02-23T00:11:31;66067.19;;;5.15;100.00
19890;BME280;10107;51.198;6.824;2024-02-23T00:15:34;66065.28;;;5.04;100.00
19890;BME280;10107;51.198;6.824;2024-02-23T00:19:36;66073.25;;;4.97;100.00
19890;BME280;10107;51.198;6.824;2024-02-23T00:23:38;66049.38;;;4.90;100.00
19890;BME280;10107;51.198;6.824;2024-02-23T00:27:39;66034.75;;;4.82;100.00
19890;BME280;10107;51.198;6.824;2024-02-23T00:31:43;66049.41;;;4.74;100.00
19890;BME280;10107;51.198;6.824;2024-02-23T00:35:46;66011.06;;;4.68;100.00
19890;BME280;10107;51.198;6.824;2024-02-23T00:39:48;66017.94;;;4.65;100.00
19890;BME280;10107;51.198;6.824;2024-02-23T00:43:50;66015.34;;;4.65;100.00
19890;BME280;10107;51.198;6.824;2024-02-23T00:47:53;66032.91;;;4.60;100.00
19890;BME280;10107;51.198;6.824;2024-02-23T00:51:55;66052.84;;;4.57;100.00
19890;BME280;10107;51.198;6.824;2024-02-23T00:55:57;66018.03;;;4.54;100.00
19890;BME280;10107;51.198;6.824;2024-02-23T00:59:58;66014.16;;;4.48;100.00
19890;BME280;10107;51.198;6.824;2024-02-23T01:04:01;65974.94;;;4.39;100.00
19890;BME280;10107;51.198;6.824;2024-02-23T01:08:03;65991.66;;;4.35;100.00
19890;BME280;10107;51.198;6.824;2024-02-23T01:12:05;66007.59;;;4.38;100.00
19890;BME280;10107;51.198;6.824;2024-02-23T01:16:07;66012.56;;;4.40;100.00
19890;BME280;10107;51.198;6.824;2024-02-23T01:20:10;66001.06;;;4.44;100.00
19890;BME280;10107;51.198;6.824;2024-02-23T01:24:12;66024.75;;;4.57;100.00
19890;BME280;10107;51.198;6.824;2024-02-23T01:28:14;66043.16;;;4.67;100.00
19890;BME280;10107;51.198;6.824;2024-02-23T01:32:15;66043.94;;;4.76;100.00
19890;BME280;10107;51.198;6.824;2024-02-23T01:36:18;66035.34;;;4.83;100.00
19890;BME280;10107;51.198;6.824;2024-02-23T01:40:20;66017.69;;;4.83;100.00
19890;BME280;10107;51.198;6.824;2024-02-23T01:44:21;66038.38;;;4.74;100.00
19890;BME280;10107;51.198;6.824;2024-02-23T01:48:23;66032.50;;;4.69;100.00
19890;BME280;10107;51.198;6.824;2024-02-23T01:52:26;66043.69;;;4.63;100.00
19890;BME280;10107;51.198;6.824;2024-02-23T01:56:28;65974.34;;;4.54;100.00
19890;BME280;10107;51.198;6.824;2024-02-23T02:00:30;65984.59;;;4.45;100.00
19890;BME280;10107;51.198;6.824;2024-02-23T02:04:32;66017.53;;;4.42;100.00
19890;BME280;10107;51.198;6.824;2024-02-23T02:08:35;66009.03;;;4.37;100.00
19890;BME280;10107;51.198;6.824;2024-02-23T02:12:37;66002.91;;;4.34;100.00
19890;BME280;10107;51.198;6.824;2024-02-23T02:16:39;65993.50;;;4.42;100.00
19890;BME280;10107;51.198;6.824;2024-02-23T02:20:50;66011.03;;;4.52;100.00
19890;BME280;10107;51.198;6.824;2024-02-23T02:24:54;66007.34;;;4.56;100.00
19890;BME280;10107;51.198;6.824;2024-02-23T02:28:56;66014.75;;;4.49;100.00
19890;BME280;10107;51.198;6.824;2024-02-23T02:32:58;66001.88;;;4.42;100.00
19890;BME280;10107;51.198;6.824;2024-02-23T02:37:00;66019.22;;;4.39;100.00
19890;BME280;10107;51.198;6.824;2024-02-23T02:41:03;65956.03;;;4.34;100.00
19890;BME280;10107;51.198;6.824;2024-02-23T02:45:06;66005.44;;;4.29;100.00
19890;BME280;10107;51.198;6.824;2024-02-23T02:49:08;65997.50;;;4.25;100.00
19890;BME280;10107;51.198;6.824;2024-02-23T02:53:09;65982.75;;;4.23;100.00
19890;BME280;10107;51.198;6.824;2024-02-23T02:57:14;65994.16;;;4.15;100.00
19890;BME280;10107;51.198;6.824;2024-02-23T03:01:15;65986.25;;;4.10;100.00
19890;BME280;10107;51.198;6.824;2024-02-23T03:05:17;65955.00;;;4.10;100.00
19890;BME280;10107;51.198;6.824;2024-02-23T03:09:19;65985.75;;;4.14;100.00
19890;BME280;10107;51.198;6.824;2024-02-23T03:13:22;65969.88;;;4.16;100.00
19890;BME280;10107;51.198;6.824;2024-02-23T03:17:23;65986.19;;;4.22;100.00
19890;BME280;10107;51.198;6.824;2024-02-23T03:21:25;65983.25;;;4.19;100.00
19890;BME280;10107;51.198;6.824;2024-02-23T03:25:27;65962.25;;;4.26;100.00
19890;BME280;10107;51.198;6.824;2024-02-23T03:29:29;66003.91;;;4.26;100.00
19890;BME280;10107;51.198;6.824;2024-02-23T03:33:32;65982.38;;;4.21;100.00
19890;BME280;10107;51.198;6.824;2024-02-23T03:37:33;66013.38;;;4.23;100.00
19890;BME280;10107;51.198;6.824;2024-02-23T03:41:35;65961.81;;;4.19;100.00
19890;BME280;10107;51.198;6.824;2024-02-23T03:45:38;65973.25;;;4.10;100.00
19890;BME280;10107;51.198;6.824;2024-02-23T03:49:40;65981.56;;;4.06;100.00
19890;BME280;10107;51.198;6.824;2024-02-23T03:53:41;65954.94;;;4.06;100.00
19890;BME280;10107;51.198;6.824;2024-02-23T03:57:43;66003.78;;;4.05;100.00
19890;BME280;10107;51.198;6.824;2024-02-23T04:01:46;65970.81;;;4.04;100.00
19890;BME280;10107;51.198;6.824;2024-02-23T04:05:48;65946.19;;;4.03;100.00
19890;BME280;10107;51.198;6.824;2024-02-23T04:09:49;65945.69;;;4.07;100.00
19890;BME280;10107;51.198;6.824;2024-02-23T04:13:52;65952.50;;;4.15;100.00
19890;BME280;10107;51.198;6.824;2024-02-23T04:17:55;65945.59;;;4.18;100.00
19890;BME280;10107;51.198;6.824;2024-02-23T04:21:57;65973.06;;;4.17;100.00
19890;BME280;10107;51.198;6.824;2024-02-23T04:25:59;65966.09;;;4.15;100.00
19890;BME280;10107;51.198;6.824;2024-02-23T04:30:00;65977.19;;;4.21;100.00
19890;BME280;10107;51.198;6.824;2024-02-23T04:34:04;66004.59;;;4.31;100.00
19890;BME280;10107;51.198;6.824;2024-02-23T04:38:05;65996.94;;;4.40;100.00
19890;BME280;10107;51.198;6.824;2024-02-23T04:42:07;65984.00;;;4.45;100.00
19890;BME280;10107;51.198;6.824;2024-02-23T04:46:09;66004.59;;;4.47;100.00
19890;BME280;10107;51.198;6.824;2024-02-23T04:50:12;66017.69;;;4.51;100.00
19890;BME280;10107;51.198;6.824;2024-02-23T04:54:14;65982.81;;;4.60;100.00
19890;BME280;10107;51.198;6.824;2024-02-23T04:58:15;65979.69;;;4.64;100.00
19890;BME280;10107;51.198;6.824;2024-02-23T05:02:17;66002.38;;;4.70;100.00
19890;BME280;10107;51.198;6.824;2024-02-23T05:06:20;66023.34;;;4.74;100.00
19890;BME280;10107;51.198;6.824;2024-02-23T05:10:22;66032.91;;;4.76;100.00
19890;BME280;10107;51.198;6.824;2024-02-23T05:14:24;66043.09;;;4.78;100.00
19890;BME280;10107;51.198;6.824;2024-02-23T05:18:25;66058.72;;;4.78;100.00
19890;BME280;10107;51.198;6.824;2024-02-23T05:22:28;66014.16;;;4.80;100.00
19890;BME280;10107;51.198;6.824;2024-02-23T05:26:30;66026.84;;;4.78;100.00
19890;BME280;10107;51.198;6.824;2024-02-23T05:30:31;66013.22;;;4.77;100.00
19890;BME280;10107;51.198;6.824;2024-02-23T05:34:33;66065.19;;;4.84;100.00
19890;BME280;10107;51.198;6.824;2024-02-23T05:38:37;66056.44;;;4.81;100.00
19890;BME280;10107;51.198;6.824;2024-02-23T05:42:38;66017.94;;;4.81;100.00
19890;BME280;10107;51.198;6.824;2024-02-23T05:46:42;66039.03;;;4.79;100.00
19890;BME280;10107;51.198;6.824;2024-02-23T05:50:44;66019.63;;;4.78;100.00
19890;BME280;10107;51.198;6.824;2024-02-23T05:54:46;66027.47;;;4.78;100.00
19890;BME280;10107;51.198;6.824;2024-02-23T05:58:48;66048.53;;;4.76;100.00
19890;BME280;10107;51.198;6.824;2024-02-23T06:02:50;66025.06;;;4.76;100.00
19890;BME280;10107;51.198;6.824;2024-02-23T06:06:51;66031.47;;;4.77;100.00
19890;BME280;10107;51.198;6.824;2024-02-23T06:10:54;65990.97;;;4.78;100.00
19890;BME280;10107;51.198;6.824;2024-02-23T06:14:56;66009.53;;;4.81;100.00
19890;BME280;10107;51.198;6.824;2024-02-23T06:18:58;66052.06;;;4.79;100.00
19890;BME280;10107;51.198;6.824;2024-02-23T06:23:01;66020.81;;;4.79;100.00
19890;BME280;10107;51.198;6.824;2024-02-23T06:27:04;66089.50;;;4.82;100.00
19890;BME280;10107;51.198;6.824;2024-02-23T06:31:06;66042.84;;;4.80;100.00
19890;BME280;10107;51.198;6.824;2024-02-23T06:35:08;66032.66;;;4.78;100.00
19890;BME280;10107;51.198;6.824;2024-02-23T06:39:12;66051.25;;;4.81;100.00
19890;BME280;10107;51.198;6.824;2024-02-23T06:43:15;66026.59;;;4.80;100.00
19890;BME280;10107;51.198;6.824;2024-02-23T06:47:17;66011.31;;;4.82;100.00
19890;BME280;10107;51.198;6.824;2024-02-23T06:51:18;66033.56;;;4.81;100.00
19890;BME280;10107;51.198;6.824;2024-02-23T06:55:22;66008.03;;;4.77;100.00
19890;BME280;10107;51.198;6.824;2024-02-23T06:59:25;66008.53;;;4.73;100.00
19890;BME280;10107;51.198;6.824;2024-02-23T07:03:26;65988.00;;;4.75;100.00
19890;BME280;10107;51.198;6.824;2024-02-23T07:07:28;66045.59;;;4.89;100.00
19890;BME280;10107;51.198;6.824;2024-02-23T07:11:30;66053.00;;;4.98;100.00
19890;BME280;10107;51.198;6.824;2024-02-23T07:15:34;66055.75;;;5.07;100.00
19890;BME280;10107;51.198;6.824;2024-02-23T07:19:36;66065.56;;;5.39;100.00
19890;BME280;10107;51.198;6.824;2024-02-23T07:23:37;66085.16;;;5.65;100.00
19890;BME280;10107;51.198;6.824;2024-02-23T07:27:39;66082.47;;;5.60;100.00
19890;BME280;10107;51.198;6.824;2024-02-23T07:31:42;66081.56;;;5.57;100.00
19890;BME280;10107;51.198;6.824;2024-02-23T07:35:43;66074.81;;;5.90;100.00
19890;BME280;10107;51.198;6.824;2024-02-23T07:39:45;66125.56;;;6.23;100.00
19890;BME280;10107;51.198;6.824;2024-02-23T07:43:46;66164.97;;;6.73;100.00
19890;BME280;10107;51.198;6.824;2024-02-23T07:47:50;66198.78;;;7.00;100.00
19890;BME280;10107;51.198;6.824;2024-02-23T07:51:52;66213.53;;;7.13;100.00
19890;BME280;10107;51.198;6.824;2024-02-23T07:55:54;66159.31;;;8.99;100.00
19890;BME280;10107;51.198;6.824;2024-02-23T07:59:55;66880.16;;;16.94;72.32
19890;BME280;10107;51.198;6.824;2024-02-23T08:03:58;67644.03;;;20.66;43.52
19890;BME280;10107;51.198;6.824;2024-02-23T08:08:00;67163.50;;;16.68;49.52
19890;BME280;10107;51.198;6.824;2024-02-23T08:12:02;66802.47;;;16.15;51.06
19890;BME280;10107;51.198;6.824;2024-02-23T08:16:03;66895.03;;;13.62;56.26
19890;BME280;10107;51.198;6.824;2024-02-23T08:20:08;66578.78;;;10.81;72.43
19890;BME280;10107;51.198;6.824;2024-02-23T08:24:10;66331.56;;;12.09;74.85
19890;BME280;10107;51.198;6.824;2024-02-23T08:28:11;67284.81;;;18.23;46.29
19890;BME280;10107;51.198;6.824;2024-02-23T08:32:13;66796.31;;;16.62;48.29
19890;BME280;10107;51.198;6.824;2024-02-23T08:36:16;66921.75;;;14.29;53.70
19890;BME280;10107;51.198;6.824;2024-02-23T08:40:18;66607.03;;;10.96;69.45
19890;BME280;10107;51.198;6.824;2024-02-23T08:44:19;66390.88;;;9.49;82.64
19890;BME280;10107;51.198;6.824;2024-02-23T08:48:21;66201.56;;;9.95;81.55
19890;BME280;10107;51.198;6.824;2024-02-23T08:52:24;66579.16;;;10.63;76.64
19890;BME280;10107;51.198;6.824;2024-02-23T08:56:26;66539.53;;;10.49;79.42
19890;BME280;10107;51.198;6.824;2024-02-23T09:00:27;66492.47;;;9.76;81.95
19890;BME280;10107;51.198;6.824;2024-02-23T09:04:29;66442.25;;;9.07;88.11
19890;BME280;10107;51.198;6.824;2024-02-23T09:08:32;66373.47;;;8.45;86.36
19890;BME280;10107;51.198;6.824;2024-02-23T09:12:34;66346.25;;;7.97;93.38
19890;BME280;10107;51.198;6.824;2024-02-23T09:16:35;66291.97;;;7.86;91.90
19890;BME280;10107;51.198;6.824;2024-02-23T09:20:37;66284.41;;;7.47;95.41
19890;BME280;10107;51.198;6.824;2024-02-23T09:24:40;66268.56;;;7.38;95.23
19890;BME280;10107;51.198;6.824;2024-02-23T09:28:42;66263.97;;;7.43;96.36
19890;BME280;10107;51.198;6.824;2024-02-23T09:32:45;66057.19;;;8.53;89.71
19890;BME280;10107;51.198;6.824;2024-02-23T09:36:46;66406.84;;;9.43;81.49
19890;BME280;10107;51.198;6.824;2024-02-23T09:40:50;66402.56;;;9.05;84.10
19890;BME280;10107;51.198;6.824;2024-02-23T09:44:57;66326.56;;;8.43;86.99
19890;BME280;10107;51.198;6.824;2024-02-23T09:49:02;66316.78;;;8.12;89.82
19890;BME280;10107;51.198;6.824;2024-02-23T09:53:07;66334.41;;;7.82;91.05
19890;BME280;10107;51.198;6.824;2024-02-23T09:57:14;66289.34;;;7.86;95.20
19890;BME280;10107;51.198;6.824;2024-02-23T10:01:24;66305.31;;;8.04;92.90
19890;BME280;10107;51.198;6.824;2024-02-23T10:05:30;66355.31;;;8.59;88.28
19890;BME280;10107;51.198;6.824;2024-02-23T10:09:32;66394.53;;;9.16;86.01
19890;BME280;10107;51.198;6.824;2024-02-23T10:13:35;66386.25;;;9.29;83.11
19890;BME280;10107;51.198;6.824;2024-02-23T10:17:36;66374.50;;;8.99;83.26
19890;BME280;10107;51.198;6.824;2024-02-23T10:21:38;66377.41;;;9.22;81.16
19890;BME280;10107;51.198;6.824;2024-02-23T10:25:40;66425.75;;;9.39;82.09
19890;BME280;10107;51.198;6.824;2024-02-23T10:29:43;66372.09;;;9.17;81.56
19890;BME280;10107;51.198;6.824;2024-02-23T10:33:44;66387.78;;;8.87;82.36
19890;BME280;10107;51.198;6.824;2024-02-23T10:37:49;66368.69;;;8.78;86.13
19890;BME280;10107;51.198;6.824;2024-02-23T10:41:56;66391.09;;;8.77;86.53
19890;BME280;10107;51.198;6.824;2024-02-23T10:46:00;66324.84;;;8.46;86.28
19890;BME280;10107;51.198;6.824;2024-02-23T10:50:09;66350.47;;;8.25;89.30
19890;BME280;10107;51.198;6.824;2024-02-23T10:54:13;66329.63;;;8.14;92.28
19890;BME280;10107;51.198;6.824;2024-02-23T10:58:15;66310.28;;;8.06;89.46
19890;BME280;10107;51.198;6.824;2024-02-23T11:02:19;66317.63;;;8.10;89.77
19890;BME280;10107;51.198;6.824;2024-02-23T11:06:27;66328.00;;;8.01;89.84
19890;BME280;10107;51.198;6.824;2024-02-23T11:10:29;66299.34;;;7.94;89.93
19890;BME280;10107;51.198;6.824;2024-02-23T11:14:31;66287.66;;;7.89;91.21
19890;BME280;10107;51.198;6.824;2024-02-23T11:18:35;66305.31;;;7.84;92.77
19890;BME280;10107;51.198;6.824;2024-02-23T11:22:38;66294.44;;;7.77;90.80
19890;BME280;10107;51.198;6.824;2024-02-23T11:26:39;66280.28;;;7.85;90.70
19890;BME280;10107;51.198;6.824;2024-02-23T11:30:43;66299.69;;;8.18;88.65
19890;BME280;10107;51.198;6.824;2024-02-23T11:34:55;66342.22;;;8.39;89.43
19890;BME280;10107;51.198;6.824;2024-02-23T11:38:58;66356.44;;;8.76;88.71
19890;BME280;10107;51.198;6.824;2024-02-23T11:43:01;66323.22;;;8.54;87.00
19890;BME280;10107;51.198;6.824;2024-02-23T11:47:03;66361.88;;;8.49;88.61
19890;BME280;10107;51.198;6.824;2024-02-23T11:51:06;66330.41;;;8.49;89.35
19890;BME280;10107;51.198;6.824;2024-02-23T11:55:08;66380.25;;;8.49;87.94
19890;BME280;10107;51.198;6.824;2024-02-23T11:59:10;66346.88;;;8.59;87.98
19890;BME280;10107;51.198;6.824;2024-02-23T12:03:12;66355.06;;;8.41;87.72
19890;BME280;10107;51.198;6.824;2024-02-23T12:07:16;66331.63;;;8.34;90.63
19890;BME280;10107;51.198;6.824;2024-02-23T12:11:18;66358.19;;;8.57;90.32
19890;BME280;10107;51.198;6.824;2024-02-23T12:15:20;66385.34;;;8.60;87.91
19890;BME280;10107;51.198;6.824;2024-02-23T12:19:22;66369.75;;;8.49;89.74
19890;BME280;10107;51.198;6.824;2024-02-23T12:23:25;66348.75;;;8.69;88.10
19890;BME280;10107;51.198;6.824;2024-02-23T12:27:26;66369.50;;;8.97;86.96
19890;BME280;10107;51.198;6.824;2024-02-23T12:31:31;66382.44;;;9.03;84.76
19890;BME280;10107;51.198;6.824;2024-02-23T12:35:33;66363.09;;;8.96;83.93
19890;BME280;10107;51.198;6.824;2024-02-23T12:39:36;66362.47;;;9.16;86.31
19890;BME280;10107;51.198;6.824;2024-02-23T12:43:38;66381.16;;;9.18;86.62
19890;BME280;10107;51.198;6.824;2024-02-23T12:47:39;66411.59;;;9.26;88.40
19890;BME280;10107;51.198;6.824;2024-02-23T12:51:41;66396.16;;;9.29;87.31
19890;BME280;10107;51.198;6.824;2024-02-23T12:55:44;66414.81;;;9.06;90.04
19890;BME280;10107;51.198;6.824;2024-02-23T12:59:46;66380.59;;;8.97;89.74
19890;BME280;10107;51.198;6.824;2024-02-23T13:03:48;66411.72;;;9.61;87.01
19890;BME280;10107;51.198;6.824;2024-02-23T13:07:49;66463.66;;;10.31;84.35
19890;BME280;10107;51.198;6.824;2024-02-23T13:11:52;66548.47;;;10.66;80.40
19890;BME280;10107;51.198;6.824;2024-02-23T13:15:54;66560.84;;;10.72;77.92
19890;BME280;10107;51.198;6.824;2024-02-23T13:19:57;66520.63;;;10.33;77.36
19890;BME280;10107;51.198;6.824;2024-02-23T13:23:58;66480.47;;;10.23;77.70
19890;BME280;10107;51.198;6.824;2024-02-23T13:28:02;66452.47;;;10.01;78.37
19890;BME280;10107;51.198;6.824;2024-02-23T13:32:05;66430.81;;;9.70;80.62
19890;BME280;10107;51.198;6.824;2024-02-23T13:36:08;66430.53;;;9.73;80.74
19890;BME280;10107;51.198;6.824;2024-02-23T13:40:10;66474.56;;;9.67;80.81
19890;BME280;10107;51.198;6.824;2024-02-23T13:44:13;66403.78;;;9.56;81.20
19890;BME280;10107;51.198;6.824;2024-02-23T13:48:15;66480.47;;;9.52;82.13
19890;BME280;10107;51.198;6.824;2024-02-23T13:52:18;66469.38;;;9.72;80.32
19890;BME280;10107;51.198;6.824;2024-02-23T13:56:20;66484.66;;;9.81;80.43
19890;BME280;10107;51.198;6.824;2024-02-23T14:00:23;66430.53;;;9.73;79.14
19890;BME280;10107;51.198;6.824;2024-02-23T14:04:25;66481.66;;;9.53;78.90
19890;BME280;10107;51.198;6.824;2024-02-23T14:08:27;66419.31;;;9.38;80.04
19890;BME280;10107;51.198;6.824;2024-02-23T14:12:29;66410.16;;;9.27;81.04
19890;BME280;10107;51.198;6.824;2024-02-23T14:16:32;66400.88;;;9.33;82.14
19890;BME280;10107;51.198;6.824;2024-02-23T14:20:34;66426.28;;;9.35;82.75
19890;BME280;10107;51.198;6.824;2024-02-23T14:24:35;66429.19;;;9.32;83.18
19890;BME280;10107;51.198;6.824;2024-02-23T14:28:37;66393.31;;;9.10;83.27
19890;BME280;10107;51.198;6.824;2024-02-23T14:32:41;66383.28;;;9.02;84.90
19890;BME280;10107;51.198;6.824;2024-02-23T14:36:43;66402.72;;;8.94;84.63
19890;BME280;10107;51.198;6.824;2024-02-23T14:40:45;66405.78;;;8.85;85.29
19890;BME280;10107;51.198;6.824;2024-02-23T14:44:47;66389.72;;;9.28;85.83
19890;BME280;10107;51.198;6.824;2024-02-23T14:48:51;66443.78;;;9.57;82.54
19890;BME280;10107;51.198;6.824;2024-02-23T14:52:54;66431.22;;;9.57;81.88
19890;BME280;10107;51.198;6.824;2024-02-23T14:56:57;66462.63;;;9.48;83.38
19890;BME280;10107;51.198;6.824;2024-02-23T15:00:59;66408.22;;;9.37;82.50
19890;BME280;10107;51.198;6.824;2024-02-23T15:05:04;66405.63;;;9.17;83.76
19890;BME280;10107;51.198;6.824;2024-02-23T15:09:06;66408.47;;;9.10;93.33
19890;BME280;10107;51.198;6.824;2024-02-23T15:13:10;66364.69;;;9.08;96.49
19890;BME280;10107;51.198;6.824;2024-02-23T15:17:12;66378.31;;;8.79;98.55
19890;BME280;10107;51.198;6.824;2024-02-23T15:21:15;66331.88;;;8.48;100.00
19890;BME280;10107;51.198;6.824;2024-02-23T15:25:18;66280.34;;;8.10;100.00
19890;BME280;10107;51.198;6.824;2024-02-23T15:29:20;66289.66;;;8.09;100.00
19890;BME280;10107;51.198;6.824;2024-02-23T15:33:21;66318.69;;;8.23;100.00
19890;BME280;10107;51.198;6.824;2024-02-23T15:37:24;66279.38;;;8.23;100.00
19890;BME280;10107;51.198;6.824;2024-02-23T15:41:26;66324.13;;;8.37;100.00
19890;BME280;10107;51.198;6.824;2024-02-23T15:45:28;66287.63;;;8.09;100.00
19890;BME280;10107;51.198;6.824;2024-02-23T15:49:29;66263.94;;;7.80;100.00
19890;BME280;10107;51.198;6.824;2024-02-23T15:53:33;66260.13;;;7.58;100.00
19890;BME280;10107;51.198;6.824;2024-02-23T15:57:37;66227.22;;;7.34;100.00
19890;BME280;10107;51.198;6.824;2024-02-23T16:01:39;66196.91;;;7.10;100.00
19890;BME280;10107;51.198;6.824;2024-02-23T16:05:41;66196.13;;;6.96;100.00
19890;BME280;10107;51.198;6.824;2024-02-23T16:09:45;66194.09;;;6.96;100.00
19890;BME280;10107;51.198;6.824;2024-02-23T16:13:49;66196.31;;;7.09;100.00
19890;BME280;10107;51.198;6.824;2024-02-23T16:17:53;66194.56;;;7.28;100.00
19890;BME280;10107;51.198;6.824;2024-02-23T16:21:56;66206.19;;;7.29;100.00
19890;BME280;10107;51.198;6.824;2024-02-23T16:26:00;66186.38;;;7.05;100.00
19890;BME280;10107;51.198;6.824;2024-02-23T16:30:03;66175.81;;;6.80;100.00
19890;BME280;10107;51.198;6.824;2024-02-23T16:34:05;66170.00;;;6.59;100.00
19890;BME280;10107;51.198;6.824;2024-02-23T16:38:08;66117.84;;;6.48;100.00
19890;BME280;10107;51.198;6.824;2024-02-23T16:42:11;66123.31;;;6.46;100.00
19890;BME280;10107;51.198;6.824;2024-02-23T16:46:12;66141.63;;;6.46;100.00
19890;BME280;10107;51.198;6.824;2024-02-23T16:50:14;66099.22;;;6.45;100.00
19890;BME280;10107;51.198;6.824;2024-02-23T16:54:16;66139.41;;;6.53;100.00
19890;BME280;10107;51.198;6.824;2024-02-23T16:58:19;66163.00;;;6.58;100.00
19890;BME280;10107;51.198;6.824;2024-02-23T17:02:22;66138.28;;;6.57;100.00
19890;BME280;10107;51.198;6.824;2024-02-23T17:06:24;66188.72;;;6.50;100.00
19890;BME280;10107;51.198;6.824;2024-02-23T17:10:26;66126.00;;;6.50;100.00
19890;BME280;10107;51.198;6.824;2024-02-23T17:14:29;66148.69;;;6.52;100.00
19890;BME280;10107;51.198;6.824;2024-02-23T17:18:30;66175.06;;;6.50;100.00
19890;BME280;10107;51.198;6.824;2024-02-23T17:22:32;66162.78;;;6.44;100.00
19890;BME280;10107;51.198;6.824;2024-02-23T17:26:33;66132.28;;;6.42;100.00
19890;BME280;10107;51.198;6.824;2024-02-23T17:30:36;66116.53;;;6.38;100.00
19890;BME280;10107;51.198;6.824;2024-02-23T17:34:38;66146.38;;;6.34;100.00
19890;BME280;10107;51.198;6.824;2024-02-23T17:38:40;66138.00;;;6.38;100.00
19890;BME280;10107;51.198;6.824;2024-02-23T17:42:41;66121.94;;;6.31;100.00
19890;BME280;10107;51.198;6.824;2024-02-23T17:46:44;66167.44;;;6.27;100.00
19890;BME280;10107;51.198;6.824;2024-02-23T17:50:47;66114.81;;;6.20;100.00
19890;BME280;10107;51.198;6.824;2024-02-23T17:54:49;66158.59;;;6.20;100.00
19890;BME280;10107;51.198;6.824;2024-02-23T17:58:52;66110.41;;;6.19;100.00
19890;BME280;10107;51.198;6.824;2024-02-23T18:02:55;66096.16;;;6.18;100.00
19890;BME280;10107;51.198;6.824;2024-02-23T18:06:56;66090.09;;;6.19;100.00
19890;BME280;10107;51.198;6.824;2024-02-23T18:10:59;66095.06;;;6.21;100.00
19890;BME280;10107;51.198;6.824;2024-02-23T18:15:01;66111.09;;;6.24;100.00
19890;BME280;10107;51.198;6.824;2024-02-23T18:19:05;66145.97;;;6.27;100.00
19890;BME280;10107;51.198;6.824;2024-02-23T18:23:08;66105.66;;;6.30;100.00
19890;BME280;10107;51.198;6.824;2024-02-23T18:27:10;66153.03;;;6.33;100.00
19890;BME280;10107;51.198;6.824;2024-02-23T18:31:15;66144.34;;;6.34;100.00
19890;BME280;10107;51.198;6.824;2024-02-23T18:35:19;66140.56;;;6.33;100.00
19890;BME280;10107;51.198;6.824;2024-02-23T18:39:20;66131.53;;;6.32;100.00
19890;BME280;10107;51.198;6.824;2024-02-23T18:43:22;66129.75;;;6.31;100.00
19890;BME280;10107;51.198;6.824;2024-02-23T18:47:24;66102.47;;;6.30;100.00
19890;BME280;10107;51.198;6.824;2024-02-23T18:51:27;66130.94;;;6.32;100.00
19890;BME280;10107;51.198;6.824;2024-02-23T18:55:31;66144.00;;;6.32;100.00
19890;BME280;10107;51.198;6.824;2024-02-23T18:59:37;66131.59;;;6.37;100.00
19890;BME280;10107;51.198;6.824;2024-02-23T19:03:40;66134.56;;;6.40;100.00
19890;BME280;10107;51.198;6.824;2024-02-23T19:07:43;66175.25;;;6.43;100.00
19890;BME280;10107;51.198;6.824;2024-02-23T19:11:45;66107.25;;;6.39;100.00
19890;BME280;10107;51.198;6.824;2024-02-23T19:15:47;66150.75;;;6.36;100.00
19890;BME280;10107;51.198;6.824;2024-02-23T19:19:49;66135.91;;;6.34;100.00
19890;BME280;10107;51.198;6.824;2024-02-23T19:23:53;66155.97;;;6.36;100.00
19890;BME280;10107;51.198;6.824;2024-02-23T19:27:55;66156.81;;;6.34;100.00
19890;BME280;10107;51.198;6.824;2024-02-23T19:31:57;66108.03;;;6.32;100.00
19890;BME280;10107;51.198;6.824;2024-02-23T19:35:58;66104.22;;;6.31;100.00
19890;BME280;10107;51.198;6.824;2024-02-23T19:40:02;66147.78;;;6.33;100.00
19890;BME280;10107;51.198;6.824;2024-02-23T19:44:05;66121.28;;;6.26;100.00
19890;BME280;10107;51.198;6.824;2024-02-23T19:48:06;66111.59;;;6.20;100.00
19890;BME280;10107;51.198;6.824;2024-02-23T19:52:08;66124.84;;;6.13;100.00
19890;BME280;10107;51.198;6.824;2024-02-23T19:56:15;66128.75;;;6.03;100.00
19890;BME280;10107;51.198;6.824;2024-02-23T20:00:18;66102.44;;;5.93;100.00
19890;BME280;10107;51.198;6.824;2024-02-23T20:04:19;66065.16;;;5.84;100.00
19890;BME280;10107;51.198;6.824;2024-02-23T20:08:21;66090.28;;;5.76;100.00
19890;BME280;10107;51.198;6.824;2024-02-23T20:12:27;66094.91;;;5.75;100.00
19890;BME280;10107;51.198;6.824;2024-02-23T20:16:29;66072.84;;;5.74;100.00
19890;BME280;10107;51.198;6.824;2024-02-23T20:20:31;66047.59;;;5.73;100.00
19890;BME280;10107;51.198;6.824;2024-02-23T20:24:35;66058.03;;;5.73;100.00
19890;BME280;10107;51.198;6.824;2024-02-23T20:28:39;66054.81;;;5.72;100.00
19890;BME280;10107;51.198;6.824;2024-02-23T20:32:41;66056.63;;;5.58;100.00
19890;BME280;10107;51.198;6.824;2024-02-23T20:36:43;66045.97;;;5.44;100.00
19890;BME280;10107;51.198;6.824;2024-02-23T20:40:46;65990.44;;;5.34;100.00
19890;BME280;10107;51.198;6.824;2024-02-23T20:44:49;66043.97;;;5.29;100.00
19890;BME280;10107;51.198;6.824;2024-02-23T20:48:51;66031.25;;;5.31;100.00
19890;BME280;10107;51.198;6.824;2024-02-23T20:52:52;66042.03;;;5.34;100.00
19890;BME280;10107;51.198;6.824;2024-02-23T20:56:54;66056.59;;;5.38;100.00
19890;BME280;10107;51.198;6.824;2024-02-23T21:00:57;66032.34;;;5.44;100.00
19890;BME280;10107;51.198;6.824;2024-02-23T21:04:59;66057.41;;;5.52;100.00
19890;BME280;10107;51.198;6.824;2024-02-23T21:09:01;66029.38;;;5.57;100.00
19890;BME280;10107;51.198;6.824;2024-02-23T21:13:03;66038.34;;;5.58;100.00
19890;BME280;10107;51.198;6.824;2024-02-23T21:17:07;66005.53;;;5.54;100.00
19890;BME280;10107;51.198;6.824;2024-02-23T21:21:09;66051.25;;;5.49;100.00
19890;BME280;10107;51.198;6.824;2024-02-23T21:25:10;66013.75;;;5.41;100.00
19890;BME280;10107;51.198;6.824;2024-02-23T21:29:12;66012.41;;;5.31;100.00